sensor_id;sensor_type;location;lat;lon;timestamp;P1;durP1;ratioP1;P2;durP2;ratioP2
19036;SDS011;9651;49.138;8.900;2023-07-22T00:00:43;2.95;;;2.00;;
19036;SDS011;9651;49.138;8.900;2023-07-22T00:04:45;4.00;;;1.70;;
19036;SDS011;9651;49.138;8.900;2023-07-22T00:08:47;5.05;;;2.55;;
19036;SDS011;9651;49.138;8.900;2023-07-22T00:12:50;2.30;;;1.90;;
19036;SDS011;9651;49.138;8.900;2023-07-22T00:16:52;3.45;;;2.28;;
19036;SDS011;9651;49.138;8.900;2023-07-22T00:20:54;5.57;;;2.50;;
19036;SDS011;9651;49.138;8.900;2023-07-22T00:24:56;4.00;;;2.55;;
19036;SDS011;9651;49.138;8.900;2023-07-22T00:29:01;2.60;;;1.95;;
19036;SDS011;9651;49.138;8.900;2023-07-22T00:33:05;2.55;;;2.15;;
19036;SDS011;9651;49.138;8.900;2023-07-22T00:37:07;4.25;;;1.92;;
19036;SDS011;9651;49.138;8.900;2023-07-22T00:41:09;3.50;;;2.10;;
19036;SDS011;9651;49.138;8.900;2023-07-22T00:45:12;2.33;;;1.90;;
19036;SDS011;9651;49.138;8.900;2023-07-22T00:49:14;3.50;;;2.00;;
19036;SDS011;9651;49.138;8.900;2023-07-22T00:53:18;3.90;;;1.88;;
19036;SDS011;9651;49.138;8.900;2023-07-22T00:57:20;4.35;;;2.08;;
19036;SDS011;9651;49.138;8.900;2023-07-22T01:01:23;2.33;;;2.13;;
19036;SDS011;9651;49.138;8.900;2023-07-22T01:05:25;2.60;;;2.28;;
19036;SDS011;9651;49.138;8.900;2023-07-22T01:09:33;3.47;;;2.17;;
19036;SDS011;9651;49.138;8.900;2023-07-22T01:13:36;3.42;;;2.05;;
19036;SDS011;9651;49.138;8.900;2023-07-22T01:17:39;2.58;;;2.13;;
19036;SDS011;9651;49.138;8.900;2023-07-22T01:21:41;2.75;;;2.08;;
19036;SDS011;9651;49.138;8.900;2023-07-22T01:25:45;3.75;;;2.33;;
19036;SDS011;9651;49.138;8.900;2023-07-22T01:29:50;5.25;;;2.03;;
19036;SDS011;9651;49.138;8.900;2023-07-22T01:33:52;3.67;;;2.17;;
19036;SDS011;9651;49.138;8.900;2023-07-22T01:37:54;4.38;;;2.00;;
19036;SDS011;9651;49.138;8.900;2023-07-22T01:41:57;2.33;;;2.13;;
19036;SDS011;9651;49.138;8.900;2023-07-22T01:45:59;2.60;;;2.15;;
19036;SDS011;9651;49.138;8.900;2023-07-22T01:50:02;3.55;;;2.63;;
19036;SDS011;9651;49.138;8.900;2023-07-22T01:54:04;3.92;;;2.63;;
19036;SDS011;9651;49.138;8.900;2023-07-22T01:58:07;4.00;;;2.20;;
19036;SDS011;9651;49.138;8.900;2023-07-22T02:02:09;4.07;;;2.90;;
19036;SDS011;9651;49.138;8.900;2023-07-22T02:06:11;2.47;;;2.17;;
19036;SDS011;9651;49.138;8.900;2023-07-22T02:10:12;4.32;;;2.30;;
19036;SDS011;9651;49.138;8.900;2023-07-22T02:14:16;3.78;;;2.63;;
19036;SDS011;9651;49.138;8.900;2023-07-22T02:18:18;2.75;;;2.30;;
19036;SDS011;9651;49.138;8.900;2023-07-22T02:22:19;4.32;;;2.47;;
19036;SDS011;9651;49.138;8.900;2023-07-22T02:26:21;3.92;;;2.58;;
19036;SDS011;9651;49.138;8.900;2023-07-22T02:30:25;4.97;;;2.88;;
19036;SDS011;9651;49.138;8.900;2023-07-22T02:34:27;3.55;;;2.42;;
19036;SDS011;9651;49.138;8.900;2023-07-22T02:38:29;5.00;;;2.95;;
19036;SDS011;9651;49.138;8.900;2023-07-22T02:42:31;3.13;;;2.55;;
19036;SDS011;9651;49.138;8.900;2023-07-22T02:46:34;5.10;;;2.53;;
19036;SDS011;9651;49.138;8.900;2023-07-22T02:50:36;5.05;;;3.15;;
19036;SDS011;9651;49.138;8.900;2023-07-22T02:54:39;4.25;;;2.65;;
19036;SDS011;9651;49.138;8.900;2023-07-22T02:58:42;4.25;;;2.70;;
19036;SDS011;9651;49.138;8.900;2023-07-22T03:02:45;6.43;;;2.85;;
19036;SDS011;9651;49.138;8.900;2023-07-22T03:06:47;3.97;;;2.90;;
19036;SDS011;9651;49.138;8.900;2023-07-22T03:10:49;4.35;;;3.00;;
19036;SDS011;9651;49.138;8.900;2023-07-22T03:14:51;5.65;;;3.03;;
19036;SDS011;9651;49.138;8.900;2023-07-22T03:18:54;8.07;;;2.77;;
19036;SDS011;9651;49.138;8.900;2023-07-22T03:22:56;3.97;;;2.75;;
19036;SDS011;9651;49.138;8.900;2023-07-22T03:26:57;3.38;;;2.50;;
19036;SDS011;9651;49.138;8.900;2023-07-22T03:30:59;7.72;;;3.50;;
19036;SDS011;9651;49.138;8.900;2023-07-22T03:35:03;4.13;;;2.83;;
19036;SDS011;9651;49.138;8.900;2023-07-22T03:39:05;3.20;;;2.80;;
19036;SDS011;9651;49.138;8.900;2023-07-22T03:43:08;2.83;;;2.42;;
19036;SDS011;9651;49.138;8.900;2023-07-22T03:47:09;5.22;;;3.08;;
19036;SDS011;9651;49.138;8.900;2023-07-22T03:51:13;4.10;;;2.88;;
19036;SDS011;9651;49.138;8.900;2023-07-22T03:55:15;3.85;;;2.60;;
19036;SDS011;9651;49.138;8.900;2023-07-22T03:59:16;3.65;;;2.45;;
19036;SDS011;9651;49.138;8.900;2023-07-22T04:03:18;5.85;;;2.75;;
19036;SDS011;9651;49.138;8.900;2023-07-22T04:07:21;3.33;;;2.80;;
19036;SDS011;9651;49.138;8.900;2023-07-22T04:11:24;6.47;;;3.47;;
19036;SDS011;9651;49.138;8.900;2023-07-22T04:15:26;5.38;;;3.05;;
19036;SDS011;9651;49.138;8.900;2023-07-22T04:19:27;5.57;;;3.13;;
19036;SDS011;9651;49.138;8.900;2023-07-22T04:23:31;3.97;;;2.95;;
19036;SDS011;9651;49.138;8.900;2023-07-22T04:27:33;3.83;;;2.75;;
19036;SDS011;9651;49.138;8.900;2023-07-22T04:31:35;3.38;;;2.97;;
19036;SDS011;9651;49.138;8.900;2023-07-22T04:35:38;3.65;;;3.30;;
19036;SDS011;9651;49.138;8.900;2023-07-22T04:39:46;3.33;;;2.53;;
19036;SDS011;9651;49.138;8.900;2023-07-22T04:43:49;5.32;;;3.30;;
19036;SDS011;9651;49.138;8.900;2023-07-22T04:47:51;6.63;;;3.63;;
19036;SDS011;9651;49.138;8.900;2023-07-22T04:51:53;3.05;;;2.60;;
19036;SDS011;9651;49.138;8.900;2023-07-22T04:55:57;5.28;;;2.90;;
19036;SDS011;9651;49.138;8.900;2023-07-22T04:59:59;3.63;;;3.10;;
19036;SDS011;9651;49.138;8.900;2023-07-22T05:04:04;4.68;;;2.70;;
19036;SDS011;9651;49.138;8.900;2023-07-22T05:08:06;4.18;;;2.70;;
19036;SDS011;9651;49.138;8.900;2023-07-22T05:12:09;6.63;;;3.47;;
19036;SDS011;9651;49.138;8.900;2023-07-22T05:16:11;4.15;;;2.88;;
19036;SDS011;9651;49.138;8.900;2023-07-22T05:20:13;5.70;;;2.45;;
19036;SDS011;9651;49.138;8.900;2023-07-22T05:24:15;2.75;;;2.45;;
19036;SDS011;9651;49.138;8.900;2023-07-22T05:28:18;5.55;;;3.25;;
19036;SDS011;9651;49.138;8.900;2023-07-22T05:32:20;5.07;;;2.88;;
19036;SDS011;9651;49.138;8.900;2023-07-22T05:36:22;5.07;;;2.60;;
19036;SDS011;9651;49.138;8.900;2023-07-22T05:40:24;4.10;;;2.75;;
19036;SDS011;9651;49.138;8.900;2023-07-22T05:44:27;3.83;;;2.45;;
19036;SDS011;9651;49.138;8.900;2023-07-22T05:48:29;3.42;;;2.00;;
19036;SDS011;9651;49.138;8.900;2023-07-22T05:52:31;7.65;;;2.92;;
19036;SDS011;9651;49.138;8.900;2023-07-22T05:56:33;4.72;;;2.38;;
19036;SDS011;9651;49.138;8.900;2023-07-22T06:00:36;6.10;;;3.42;;
19036;SDS011;9651;49.138;8.900;2023-07-22T06:04:39;4.72;;;2.67;;
19036;SDS011;9651;49.138;8.900;2023-07-22T06:08:41;4.35;;;2.65;;
19036;SDS011;9651;49.138;8.900;2023-07-22T06:12:43;6.30;;;3.30;;
19036;SDS011;9651;49.138;8.900;2023-07-22T06:16:46;3.13;;;2.30;;
19036;SDS011;9651;49.138;8.900;2023-07-22T06:20:48;2.83;;;2.35;;
19036;SDS011;9651;49.138;8.900;2023-07-22T06:24:50;3.15;;;2.75;;
19036;SDS011;9651;49.138;8.900;2023-07-22T06:28:52;9.48;;;2.58;;
19036;SDS011;9651;49.138;8.900;2023-07-22T06:32:55;4.70;;;2.63;;
19036;SDS011;9651;49.138;8.900;2023-07-22T06:36:57;2.20;;;2.00;;
19036;SDS011;9651;49.138;8.900;2023-07-22T06:40:59;3.03;;;1.98;;
19036;SDS011;9651;49.138;8.900;2023-07-22T06:45:01;4.88;;;2.55;;
19036;SDS011;9651;49.138;8.900;2023-07-22T06:49:04;5.38;;;2.25;;
19036;SDS011;9651;49.138;8.900;2023-07-22T06:53:06;2.92;;;2.42;;
19036;SDS011;9651;49.138;8.900;2023-07-22T06:57:09;4.38;;;2.47;;
19036;SDS011;9651;49.138;8.900;2023-07-22T07:01:11;5.28;;;2.10;;
19036;SDS011;9651;49.138;8.900;2023-07-22T07:05:14;4.07;;;2.20;;
19036;SDS011;9651;49.138;8.900;2023-07-22T07:09:17;3.05;;;2.67;;
19036;SDS011;9651;49.138;8.900;2023-07-22T07:13:19;2.28;;;1.83;;
19036;SDS011;9651;49.138;8.900;2023-07-22T07:17:21;3.10;;;2.08;;
19036;SDS011;9651;49.138;8.900;2023-07-22T07:21:24;2.40;;;2.20;;
19036;SDS011;9651;49.138;8.900;2023-07-22T07:25:26;3.33;;;2.67;;
19036;SDS011;9651;49.138;8.900;2023-07-22T07:29:28;2.85;;;2.10;;
19036;SDS011;9651;49.138;8.900;2023-07-22T07:33:30;4.20;;;2.42;;
19036;SDS011;9651;49.138;8.900;2023-07-22T07:37:33;5.47;;;2.20;;
19036;SDS011;9651;49.138;8.900;2023-07-22T07:41:35;3.10;;;2.20;;
19036;SDS011;9651;49.138;8.900;2023-07-22T07:45:38;5.05;;;2.50;;
19036;SDS011;9651;49.138;8.900;2023-07-22T07:49:40;2.40;;;2.05;;
19036;SDS011;9651;49.138;8.900;2023-07-22T07:53:43;3.70;;;1.88;;
19036;SDS011;9651;49.138;8.900;2023-07-22T07:57:47;3.55;;;1.90;;
19036;SDS011;9651;49.138;8.900;2023-07-22T08:01:48;2.45;;;1.63;;
19036;SDS011;9651;49.138;8.900;2023-07-22T08:05:50;3.08;;;1.58;;
19036;SDS011;9651;49.138;8.900;2023-07-22T08:09:53;4.53;;;1.65;;
19036;SDS011;9651;49.138;8.900;2023-07-22T08:13:57;2.80;;;2.05;;
19036;SDS011;9651;49.138;8.900;2023-07-22T08:17:59;2.85;;;1.67;;
19036;SDS011;9651;49.138;8.900;2023-07-22T08:22:01;1.80;;;1.50;;
19036;SDS011;9651;49.138;8.900;2023-07-22T08:26:04;1.63;;;1.48;;
19036;SDS011;9651;49.138;8.900;2023-07-22T08:30:07;3.75;;;1.85;;
19036;SDS011;9651;49.138;8.900;2023-07-22T08:34:09;2.38;;;1.45;;
19036;SDS011;9651;49.138;8.900;2023-07-22T08:38:11;2.67;;;1.67;;
19036;SDS011;9651;49.138;8.900;2023-07-22T08:42:15;2.13;;;1.50;;
19036;SDS011;9651;49.138;8.900;2023-07-22T08:46:20;2.30;;;1.60;;
19036;SDS011;9651;49.138;8.900;2023-07-22T08:50:30;3.33;;;1.88;;
19036;SDS011;9651;49.138;8.900;2023-07-22T08:54:38;3.63;;;1.50;;
19036;SDS011;9651;49.138;8.900;2023-07-22T08:58:42;1.58;;;1.48;;
19036;SDS011;9651;49.138;8.900;2023-07-22T09:02:46;5.10;;;1.98;;
19036;SDS011;9651;49.138;8.900;2023-07-22T09:06:49;1.65;;;1.52;;
19036;SDS011;9651;49.138;8.900;2023-07-22T09:10:51;1.60;;;1.50;;
19036;SDS011;9651;49.138;8.900;2023-07-22T09:14:55;3.50;;;1.95;;
19036;SDS011;9651;49.138;8.900;2023-07-22T09:18:58;2.10;;;1.67;;
19036;SDS011;9651;49.138;8.900;2023-07-22T09:23:00;1.95;;;1.63;;
19036;SDS011;9651;49.138;8.900;2023-07-22T09:27:02;2.30;;;1.27;;
19036;SDS011;9651;49.138;8.900;2023-07-22T09:31:06;3.03;;;1.20;;
19036;SDS011;9651;49.138;8.900;2023-07-22T09:35:08;1.30;;;1.20;;
19036;SDS011;9651;49.138;8.900;2023-07-22T09:39:10;2.42;;;1.15;;
19036;SDS011;9651;49.138;8.900;2023-07-22T09:43:16;1.35;;;1.25;;
19036;SDS011;9651;49.138;8.900;2023-07-22T09:47:19;1.30;;;1.17;;
19036;SDS011;9651;49.138;8.900;2023-07-22T09:51:21;2.10;;;1.20;;
19036;SDS011;9651;49.138;8.900;2023-07-22T09:55:23;3.47;;;1.23;;
19036;SDS011;9651;49.138;8.900;2023-07-22T09:59:26;1.83;;;1.20;;
19036;SDS011;9651;49.138;8.900;2023-07-22T10:03:31;3.70;;;1.27;;
19036;SDS011;9651;49.138;8.900;2023-07-22T10:07:35;3.40;;;1.15;;
19036;SDS011;9651;49.138;8.900;2023-07-22T10:11:41;1.40;;;1.25;;
19036;SDS011;9651;49.138;8.900;2023-07-22T10:15:43;1.45;;;1.35;;
19036;SDS011;9651;49.138;8.900;2023-07-22T10:19:48;1.52;;;1.35;;
19036;SDS011;9651;49.138;8.900;2023-07-22T10:23:52;4.10;;;1.88;;
19036;SDS011;9651;49.138;8.900;2023-07-22T10:27:54;2.47;;;1.40;;
19036;SDS011;9651;49.138;8.900;2023-07-22T10:31:56;1.20;;;1.10;;
19036;SDS011;9651;49.138;8.900;2023-07-22T10:36:03;1.80;;;1.33;;
19036;SDS011;9651;49.138;8.900;2023-07-22T10:40:19;1.42;;;1.33;;
19036;SDS011;9651;49.138;8.900;2023-07-22T10:44:26;3.60;;;2.63;;
19036;SDS011;9651;49.138;8.900;2023-07-22T10:48:34;2.60;;;1.42;;
19036;SDS011;9651;49.138;8.900;2023-07-22T10:52:39;1.63;;;1.52;;
19036;SDS011;9651;49.138;8.900;2023-07-22T10:56:43;1.40;;;1.25;;
19036;SDS011;9651;49.138;8.900;2023-07-22T11:00:45;1.85;;;1.38;;
19036;SDS011;9651;49.138;8.900;2023-07-22T11:04:48;2.30;;;1.35;;
19036;SDS011;9651;49.138;8.900;2023-07-22T11:08:51;2.92;;;1.73;;
19036;SDS011;9651;49.138;8.900;2023-07-22T11:12:53;1.48;;;1.38;;
19036;SDS011;9651;49.138;8.900;2023-07-22T11:16:56;1.98;;;1.42;;
19036;SDS011;9651;49.138;8.900;2023-07-22T11:20:59;2.70;;;1.30;;
19036;SDS011;9651;49.138;8.900;2023-07-22T11:25:02;3.83;;;1.60;;
19036;SDS011;9651;49.138;8.900;2023-07-22T11:29:05;1.52;;;1.13;;
19036;SDS011;9651;49.138;8.900;2023-07-22T11:33:08;1.67;;;1.10;;
19036;SDS011;9651;49.138;8.900;2023-07-22T11:37:10;2.70;;;1.23;;
19036;SDS011;9651;49.138;8.900;2023-07-22T11:41:14;2.25;;;1.33;;
19036;SDS011;9651;49.138;8.900;2023-07-22T11:45:16;1.55;;;1.40;;
19036;SDS011;9651;49.138;8.900;2023-07-22T11:49:21;1.70;;;1.42;;
19036;SDS011;9651;49.138;8.900;2023-07-22T11:53:25;1.77;;;1.30;;
19036;SDS011;9651;49.138;8.900;2023-07-22T11:57:30;1.67;;;1.52;;
19036;SDS011;9651;49.138;8.900;2023-07-22T12:01:32;1.50;;;1.40;;
19036;SDS011;9651;49.138;8.900;2023-07-22T12:05:35;3.60;;;1.50;;
19036;SDS011;9651;49.138;8.900;2023-07-22T12:09:38;1.80;;;1.55;;
19036;SDS011;9651;49.138;8.900;2023-07-22T12:13:41;2.00;;;1.70;;
19036;SDS011;9651;49.138;8.900;2023-07-22T12:17:46;1.48;;;1.38;;
19036;SDS011;9651;49.138;8.900;2023-07-22T12:21:49;1.83;;;1.50;;
19036;SDS011;9651;49.138;8.900;2023-07-22T12:25:51;2.22;;;1.40;;
19036;SDS011;9651;49.138;8.900;2023-07-22T12:29:56;4.32;;;1.38;;
19036;SDS011;9651;49.138;8.900;2023-07-22T12:33:57;2.95;;;1.67;;
19036;SDS011;9651;49.138;8.900;2023-07-22T12:37:59;1.45;;;1.35;;
19036;SDS011;9651;49.138;8.900;2023-07-22T12:42:01;3.05;;;1.45;;
19036;SDS011;9651;49.138;8.900;2023-07-22T12:46:04;2.78;;;1.80;;
19036;SDS011;9651;49.138;8.900;2023-07-22T12:50:06;3.03;;;1.40;;
19036;SDS011;9651;49.138;8.900;2023-07-22T12:54:09;1.20;;;1.10;;
19036;SDS011;9651;49.138;8.900;2023-07-22T12:58:10;3.22;;;1.20;;
19036;SDS011;9651;49.138;8.900;2023-07-22T13:02:14;1.60;;;1.50;;
19036;SDS011;9651;49.138;8.900;2023-07-22T13:06:16;2.30;;;1.63;;
19036;SDS011;9651;49.138;8.900;2023-07-22T13:10:18;3.05;;;1.60;;
19036;SDS011;9651;49.138;8.900;2023-07-22T13:14:22;3.15;;;2.05;;
19036;SDS011;9651;49.138;8.900;2023-07-22T13:18:25;6.50;;;1.73;;
19036;SDS011;9651;49.138;8.900;2023-07-22T13:22:27;2.13;;;1.88;;
19036;SDS011;9651;49.138;8.900;2023-07-22T13:26:29;1.90;;;1.63;;
19036;SDS011;9651;49.138;8.900;2023-07-22T13:30:31;3.60;;;1.70;;
19036;SDS011;9651;49.138;8.900;2023-07-22T13:34:34;6.68;;;1.30;;
19036;SDS011;9651;49.138;8.900;2023-07-22T13:38:36;1.63;;;1.38;;
19036;SDS011;9651;49.138;8.900;2023-07-22T13:42:38;1.98;;;1.55;;
19036;SDS011;9651;49.138;8.900;2023-07-22T13:46:40;2.00;;;1.60;;
19036;SDS011;9651;49.138;8.900;2023-07-22T13:50:43;4.60;;;2.20;;
19036;SDS011;9651;49.138;8.900;2023-07-22T13:54:45;2.50;;;1.70;;
19036;SDS011;9651;49.138;8.900;2023-07-22T13:58:46;2.10;;;1.70;;
19036;SDS011;9651;49.138;8.900;2023-07-22T14:02:48;3.00;;;1.45;;
19036;SDS011;9651;49.138;8.900;2023-07-22T14:06:51;1.92;;;1.75;;
19036;SDS011;9651;49.138;8.900;2023-07-22T14:10:53;2.22;;;1.60;;
19036;SDS011;9651;49.138;8.900;2023-07-22T14:14:55;3.75;;;1.98;;
19036;SDS011;9651;49.138;8.900;2023-07-22T14:18:57;2.08;;;1.60;;
19036;SDS011;9651;49.138;8.900;2023-07-22T14:23:01;1.90;;;1.73;;
19036;SDS011;9651;49.138;8.900;2023-07-22T14:27:03;4.63;;;2.03;;
19036;SDS011;9651;49.138;8.900;2023-07-22T14:31:06;2.75;;;1.73;;
19036;SDS011;9651;49.138;8.900;2023-07-22T14:35:08;3.15;;;1.90;;
19036;SDS011;9651;49.138;8.900;2023-07-22T14:39:11;1.90;;;1.80;;
19036;SDS011;9651;49.138;8.900;2023-07-22T14:43:13;3.40;;;1.90;;
19036;SDS011;9651;49.138;8.900;2023-07-22T14:47:15;3.55;;;1.90;;
19036;SDS011;9651;49.138;8.900;2023-07-22T14:51:17;3.42;;;2.00;;
19036;SDS011;9651;49.138;8.900;2023-07-22T14:55:20;3.60;;;2.00;;
19036;SDS011;9651;49.138;8.900;2023-07-22T14:59:22;2.88;;;2.00;;
19036;SDS011;9651;49.138;8.900;2023-07-22T15:03:24;1.83;;;1.73;;
19036;SDS011;9651;49.138;8.900;2023-07-22T15:07:26;2.78;;;1.83;;
19036;SDS011;9651;49.138;8.900;2023-07-22T15:11:30;3.42;;;2.00;;
19036;SDS011;9651;49.138;8.900;2023-07-22T15:15:32;2.38;;;1.85;;
19036;SDS011;9651;49.138;8.900;2023-07-22T15:19:34;2.92;;;1.90;;
19036;SDS011;9651;49.138;8.900;2023-07-22T15:23:36;2.10;;;1.70;;
19036;SDS011;9651;49.138;8.900;2023-07-22T15:27:39;2.75;;;2.20;;
19036;SDS011;9651;49.138;8.900;2023-07-22T15:31:41;2.58;;;1.75;;
19036;SDS011;9651;49.138;8.900;2023-07-22T15:35:43;2.92;;;2.10;;
19036;SDS011;9651;49.138;8.900;2023-07-22T15:39:45;2.13;;;1.92;;
19036;SDS011;9651;49.138;8.900;2023-07-22T15:43:48;3.20;;;1.85;;
19036;SDS011;9651;49.138;8.900;2023-07-22T15:47:50;3.45;;;2.20;;
19036;SDS011;9651;49.138;8.900;2023-07-22T15:51:52;2.05;;;1.70;;
19036;SDS011;9651;49.138;8.900;2023-07-22T15:55:54;4.05;;;1.70;;
19036;SDS011;9651;49.138;8.900;2023-07-22T15:59:57;3.10;;;1.80;;
19036;SDS011;9651;49.138;8.900;2023-07-22T16:03:59;2.05;;;1.63;;
19036;SDS011;9651;49.138;8.900;2023-07-22T16:08:01;2.55;;;2.10;;
19036;SDS011;9651;49.138;8.900;2023-07-22T16:12:03;2.30;;;2.00;;
19036;SDS011;9651;49.138;8.900;2023-07-22T16:16:06;3.97;;;1.98;;
19036;SDS011;9651;49.138;8.900;2023-07-22T16:20:09;2.22;;;2.00;;
19036;SDS011;9651;49.138;8.900;2023-07-22T16:24:12;5.05;;;2.25;;
19036;SDS011;9651;49.138;8.900;2023-07-22T16:28:14;3.05;;;2.50;;
19036;SDS011;9651;49.138;8.900;2023-07-22T16:32:17;3.28;;;2.25;;
19036;SDS011;9651;49.138;8.900;2023-07-22T16:36:20;3.35;;;2.15;;
19036;SDS011;9651;49.138;8.900;2023-07-22T16:40:22;3.30;;;2.33;;
19036;SDS011;9651;49.138;8.900;2023-07-22T16:44:24;2.75;;;2.05;;
19036;SDS011;9651;49.138;8.900;2023-07-22T16:48:27;3.15;;;2.38;;
19036;SDS011;9651;49.138;8.900;2023-07-22T16:52:29;3.55;;;2.42;;
19036;SDS011;9651;49.138;8.900;2023-07-22T16:56:30;3.53;;;2.28;;
19036;SDS011;9651;49.138;8.900;2023-07-22T17:00:32;6.82;;;2.33;;
19036;SDS011;9651;49.138;8.900;2023-07-22T17:04:36;2.65;;;2.30;;
19036;SDS011;9651;49.138;8.900;2023-07-22T17:08:38;2.83;;;2.47;;
19036;SDS011;9651;49.138;8.900;2023-07-22T17:12:39;4.95;;;2.10;;
19036;SDS011;9651;49.138;8.900;2023-07-22T17:16:41;4.60;;;2.80;;
19036;SDS011;9651;49.138;8.900;2023-07-22T17:20:45;2.60;;;2.20;;
19036;SDS011;9651;49.138;8.900;2023-07-22T17:24:46;2.65;;;2.00;;
19036;SDS011;9651;49.138;8.900;2023-07-22T17:28:48;2.70;;;2.08;;
19036;SDS011;9651;49.138;8.900;2023-07-22T17:32:50;3.67;;;2.20;;
19036;SDS011;9651;49.138;8.900;2023-07-22T17:36:54;4.15;;;2.40;;
19036;SDS011;9651;49.138;8.900;2023-07-22T17:40:56;4.35;;;2.30;;
19036;SDS011;9651;49.138;8.900;2023-07-22T17:44:57;3.20;;;2.33;;
19036;SDS011;9651;49.138;8.900;2023-07-22T17:48:59;3.30;;;1.95;;
19036;SDS011;9651;49.138;8.900;2023-07-22T17:53:02;3.58;;;1.88;;
19036;SDS011;9651;49.138;8.900;2023-07-22T17:57:04;3.33;;;2.28;;
19036;SDS011;9651;49.138;8.900;2023-07-22T18:01:07;2.47;;;2.20;;
19036;SDS011;9651;49.138;8.900;2023-07-22T18:05:08;4.88;;;2.22;;
19036;SDS011;9651;49.138;8.900;2023-07-22T18:09:12;2.85;;;2.03;;
19036;SDS011;9651;49.138;8.900;2023-07-22T18:13:14;2.33;;;1.83;;
19036;SDS011;9651;49.138;8.900;2023-07-22T18:17:16;3.30;;;2.00;;
19036;SDS011;9651;49.138;8.900;2023-07-22T18:21:17;2.90;;;1.90;;
19036;SDS011;9651;49.138;8.900;2023-07-22T18:25:22;2.85;;;2.22;;
19036;SDS011;9651;49.138;8.900;2023-07-22T18:29:24;3.95;;;3.03;;
19036;SDS011;9651;49.138;8.900;2023-07-22T18:33:26;5.47;;;2.90;;
19036;SDS011;9651;49.138;8.900;2023-07-22T18:37:28;3.38;;;2.50;;
19036;SDS011;9651;49.138;8.900;2023-07-22T18:41:31;6.18;;;3.55;;
19036;SDS011;9651;49.138;8.900;2023-07-22T18:45:33;4.40;;;2.30;;
19036;SDS011;9651;49.138;8.900;2023-07-22T18:49:35;3.22;;;2.10;;
19036;SDS011;9651;49.138;8.900;2023-07-22T18:53:36;3.17;;;2.10;;
19036;SDS011;9651;49.138;8.900;2023-07-22T18:57:40;3.55;;;2.80;;
19036;SDS011;9651;49.138;8.900;2023-07-22T19:01:41;3.47;;;2.28;;
19036;SDS011;9651;49.138;8.900;2023-07-22T19:05:44;5.43;;;1.88;;
19036;SDS011;9651;49.138;8.900;2023-07-22T19:09:46;4.05;;;2.58;;
19036;SDS011;9651;49.138;8.900;2023-07-22T19:13:49;4.47;;;2.30;;
19036;SDS011;9651;49.138;8.900;2023-07-22T19:17:51;4.20;;;2.20;;
19036;SDS011;9651;49.138;8.900;2023-07-22T19:21:53;2.33;;;2.10;;
19036;SDS011;9651;49.138;8.900;2023-07-22T19:25:55;3.13;;;2.55;;
19036;SDS011;9651;49.138;8.900;2023-07-22T19:29:59;3.08;;;2.28;;
19036;SDS011;9651;49.138;8.900;2023-07-22T19:34:01;5.00;;;2.40;;
19036;SDS011;9651;49.138;8.900;2023-07-22T19:38:03;4.28;;;3.17;;
19036;SDS011;9651;49.138;8.900;2023-07-22T19:42:05;3.97;;;2.40;;
19036;SDS011;9651;49.138;8.900;2023-07-22T19:46:10;3.17;;;2.47;;
19036;SDS011;9651;49.138;8.900;2023-07-22T19:50:13;2.50;;;2.30;;
19036;SDS011;9651;49.138;8.900;2023-07-22T19:54:15;4.70;;;2.25;;
19036;SDS011;9651;49.138;8.900;2023-07-22T19:58:17;2.95;;;2.20;;
19036;SDS011;9651;49.138;8.900;2023-07-22T20:02:20;5.25;;;2.05;;
19036;SDS011;9651;49.138;8.900;2023-07-22T20:06:22;3.40;;;2.22;;
19036;SDS011;9651;49.138;8.900;2023-07-22T20:10:23;5.43;;;2.65;;
19036;SDS011;9651;49.138;8.900;2023-07-22T20:14:25;2.95;;;2.08;;
19036;SDS011;9651;49.138;8.900;2023-07-22T20:18:28;3.55;;;2.40;;
19036;SDS011;9651;49.138;8.900;2023-07-22T20:22:30;3.45;;;2.47;;
19036;SDS011;9651;49.138;8.900;2023-07-22T20:26:32;2.80;;;2.25;;
19036;SDS011;9651;49.138;8.900;2023-07-22T20:30:34;4.43;;;2.42;;
19036;SDS011;9651;49.138;8.900;2023-07-22T20:34:37;3.88;;;2.58;;
19036;SDS011;9651;49.138;8.900;2023-07-22T20:38:39;3.47;;;2.33;;
19036;SDS011;9651;49.138;8.900;2023-07-22T20:42:41;4.00;;;2.28;;
19036;SDS011;9651;49.138;8.900;2023-07-22T20:46:44;3.53;;;2.25;;
19036;SDS011;9651;49.138;8.900;2023-07-22T20:50:47;3.80;;;2.50;;
19036;SDS011;9651;49.138;8.900;2023-07-22T20:54:49;3.67;;;2.42;;
19036;SDS011;9651;49.138;8.900;2023-07-22T20:58:52;7.43;;;2.75;;
19036;SDS011;9651;49.138;8.900;2023-07-22T21:02:53;3.63;;;2.53;;
19036;SDS011;9651;49.138;8.900;2023-07-22T21:06:57;4.55;;;2.33;;
19036;SDS011;9651;49.138;8.900;2023-07-22T21:10:58;2.95;;;2.33;;
19036;SDS011;9651;49.138;8.900;2023-07-22T21:15:00;3.25;;;2.40;;
19036;SDS011;9651;49.138;8.900;2023-07-22T21:19:02;3.58;;;2.60;;
19036;SDS011;9651;49.138;8.900;2023-07-22T21:23:06;4.00;;;2.35;;
19036;SDS011;9651;49.138;8.900;2023-07-22T21:27:08;6.22;;;2.47;;
19036;SDS011;9651;49.138;8.900;2023-07-22T21:31:10;4.72;;;2.58;;
19036;SDS011;9651;49.138;8.900;2023-07-22T21:35:12;5.28;;;2.65;;
19036;SDS011;9651;49.138;8.900;2023-07-22T21:39:15;3.28;;;2.60;;
19036;SDS011;9651;49.138;8.900;2023-07-22T21:43:17;3.53;;;2.08;;
19036;SDS011;9651;49.138;8.900;2023-07-22T21:47:19;4.05;;;2.30;;
19036;SDS011;9651;49.138;8.900;2023-07-22T21:51:21;4.32;;;2.83;;
19036;SDS011;9651;49.138;8.900;2023-07-22T21:55:24;4.38;;;2.50;;
19036;SDS011;9651;49.138;8.900;2023-07-22T21:59:26;5.13;;;2.88;;
19036;SDS011;9651;49.138;8.900;2023-07-22T22:03:28;3.58;;;2.75;;
19036;SDS011;9651;49.138;8.900;2023-07-22T22:07:30;5.07;;;3.33;;
19036;SDS011;9651;49.138;8.900;2023-07-22T22:11:33;6.30;;;2.67;;
19036;SDS011;9651;49.138;8.900;2023-07-22T22:15:35;5.72;;;2.85;;
19036;SDS011;9651;49.138;8.900;2023-07-22T22:19:37;4.72;;;2.70;;
19036;SDS011;9651;49.138;8.900;2023-07-22T22:23:38;6.82;;;3.05;;
19036;SDS011;9651;49.138;8.900;2023-07-22T22:27:42;3.92;;;2.67;;
19036;SDS011;9651;49.138;8.900;2023-07-22T22:31:43;7.28;;;2.88;;
19036;SDS011;9651;49.138;8.900;2023-07-22T22:35:46;4.20;;;2.60;;
19036;SDS011;9651;49.138;8.900;2023-07-22T22:39:48;11.93;;;3.00;;
19036;SDS011;9651;49.138;8.900;2023-07-22T22:43:51;5.70;;;2.90;;
19036;SDS011;9651;49.138;8.900;2023-07-22T22:47:53;5.28;;;3.55;;
19036;SDS011;9651;49.138;8.900;2023-07-22T22:51:54;4.32;;;3.42;;
19036;SDS011;9651;49.138;8.900;2023-07-22T22:55:56;6.63;;;3.10;;
19036;SDS011;9651;49.138;8.900;2023-07-22T23:00:00;6.85;;;3.00;;
19036;SDS011;9651;49.138;8.900;2023-07-22T23:04:03;4.20;;;2.50;;
19036;SDS011;9651;49.138;8.900;2023-07-22T23:08:06;5.13;;;2.67;;
19036;SDS011;9651;49.138;8.900;2023-07-22T23:12:08;3.95;;;2.95;;
19036;SDS011;9651;49.138;8.900;2023-07-22T23:16:11;4.78;;;2.60;;
19036;SDS011;9651;49.138;8.900;2023-07-22T23:20:13;5.15;;;3.15;;
19036;SDS011;9651;49.138;8.900;2023-07-22T23:24:15;4.03;;;2.78;;
19036;SDS011;9651;49.138;8.900;2023-07-22T23:28:17;3.90;;;2.83;;
19036;SDS011;9651;49.138;8.900;2023-07-22T23:32:20;4.05;;;3.28;;
19036;SDS011;9651;49.138;8.900;2023-07-22T23:36:22;6.20;;;3.30;;
19036;SDS011;9651;49.138;8.900;2023-07-22T23:40:24;4.95;;;2.65;;
19036;SDS011;9651;49.138;8.900;2023-07-22T23:44:26;6.18;;;3.00;;
19036;SDS011;9651;49.138;8.900;2023-07-22T23:48:29;6.65;;;3.13;;
19036;SDS011;9651;49.138;8.900;2023-07-22T23:52:31;5.72;;;3.08;;
19036;SDS011;9651;49.138;8.900;2023-07-22T23:56:33;6.35;;;2.85;;
